createdAt,value
2018-08-18T00:02:09.640Z,66.08
2018-08-18T00:04:36.911Z,66.45
2018-08-18T00:07:04.297Z,65.78
2018-08-18T00:09:31.447Z,66.72
2018-08-18T00:11:58.728Z,66.43
2018-08-18T00:14:26.106Z,66.07
2018-08-18T00:16:53.472Z,65.97
2018-08-18T00:19:22.894Z,67.65
2018-08-18T00:21:50.116Z,67.19
2018-08-18T00:24:17.299Z,66.51
2018-08-18T00:26:44.492Z,66.91
2018-08-18T00:29:11.756Z,67.00
2018-08-18T00:31:40.682Z,67.08
2018-08-18T00:34:07.949Z,66.66
2018-08-18T00:36:35.217Z,67.60
2018-08-18T00:39:02.699Z,67.63
2018-08-18T00:41:30.919Z,68.06
2018-08-18T00:43:58.956Z,68.06
2018-08-18T00:46:28.062Z,69.12
2018-08-18T00:48:55.288Z,71.15
2018-08-18T00:51:27.108Z,71.56
2018-08-18T00:53:54.381Z,72.51
2018-08-18T00:56:21.516Z,70.17
2018-08-18T00:58:52.789Z,72.60
2018-08-18T01:01:20.153Z,73.41
2018-08-18T01:03:53.016Z,71.78
2018-08-18T01:06:26.222Z,72.91
2018-08-18T01:08:54.893Z,74.22
2018-08-18T01:11:22.227Z,75.01
2018-08-18T01:13:49.792Z,75.25
2018-08-18T01:16:16.855Z,74.37
2018-08-18T01:18:44.087Z,75.06
2018-08-18T01:21:11.253Z,75.61
2018-08-18T01:23:38.497Z,75.18
2018-08-18T01:26:05.956Z,76.04
2018-08-18T01:28:33.139Z,73.66
2018-08-18T01:31:20.241Z,74.01
2018-08-18T01:33:47.466Z,73.87
2018-08-18T01:36:14.616Z,74.23
2018-08-18T01:38:41.755Z,75.16
2018-08-18T01:41:19.603Z,75.99
2018-08-18T01:43:48.762Z,75.10
2018-08-18T01:46:17.272Z,74.33
2018-08-18T01:48:45.696Z,73.76
2018-08-18T01:51:18.722Z,73.49
2018-08-18T01:53:46.915Z,74.17
2018-08-18T01:56:14.140Z,75.70
2018-08-18T01:58:41.266Z,74.98
2018-08-18T02:01:08.438Z,74.49
2018-08-18T02:03:35.621Z,75.36
2018-08-18T02:06:02.821Z,76.35
2018-08-18T02:08:30.003Z,75.76
2018-08-18T02:10:57.134Z,75.81
2018-08-18T02:13:24.311Z,76.06
2018-08-18T02:15:51.560Z,80.84
2018-08-18T02:18:18.767Z,86.79
2018-08-18T02:20:45.883Z,89.14
2018-08-18T02:23:13.070Z,90.69
2018-08-18T02:25:40.372Z,89.28
2018-08-18T02:28:19.790Z,91.28
2018-08-18T02:30:46.961Z,90.22
2018-08-18T02:33:14.536Z,91.75
2018-08-18T02:35:41.675Z,94.44
2018-08-18T02:38:08.898Z,95.50
2018-08-18T02:40:36.435Z,96.25
2018-08-18T02:43:13.709Z,96.97
2018-08-18T02:45:40.817Z,97.52
2018-08-18T02:48:12.944Z,98.58
2018-08-18T02:50:47.834Z,97.41
2018-08-18T02:53:26.511Z,96.47
2018-08-18T02:55:54.673Z,97.63
2018-08-18T02:58:21.928Z,97.88
2018-08-18T03:00:49.140Z,98.91
2018-08-18T03:03:16.571Z,99.15
2018-08-18T03:05:43.703Z,98.93
2018-08-18T03:08:10.910Z,98.91
2018-08-18T03:10:38.115Z,99.64
2018-08-18T03:13:05.288Z,98.97
2018-08-18T03:16:11.864Z,99.09
2018-08-18T03:18:45.760Z,97.92
2018-08-18T03:21:13.116Z,97.52
2018-08-18T03:23:51.641Z,95.57
2018-08-18T03:26:20.798Z,93.94
2018-08-18T03:28:50.127Z,92.71
2018-08-18T03:31:17.388Z,91.42
2018-08-18T03:33:44.590Z,89.76
2018-08-18T03:36:23.812Z,92.02
2018-08-18T03:38:51.454Z,92.13
2018-08-18T03:41:19.071Z,90.08
2018-08-18T03:43:46.180Z,90.86
2018-08-18T03:46:13.352Z,90.83
2018-08-18T03:48:40.565Z,91.09
2018-08-18T03:51:07.704Z,89.54
2018-08-18T03:53:34.978Z,88.94
2018-08-18T03:56:02.104Z,90.43
2018-08-18T03:58:56.063Z,89.76
2018-08-18T04:01:59.967Z,90.16
2018-08-18T04:04:31.768Z,89.62
2018-08-18T04:06:59.791Z,89.13
2018-08-18T04:09:28.205Z,88.99
2018-08-18T04:11:56.582Z,89.06
2018-08-18T04:14:28.077Z,88.31
2018-08-18T04:16:55.993Z,88.21
2018-08-18T04:19:23.161Z,87.54
2018-08-18T04:21:51.503Z,87.50
2018-08-18T04:24:18.669Z,88.29
2018-08-18T04:26:47.125Z,86.01
2018-08-18T04:29:14.417Z,86.16
2018-08-18T04:31:41.619Z,88.33
2018-08-18T04:34:08.831Z,90.12
2018-08-18T04:36:36.015Z,87.16
2018-08-18T04:39:09.641Z,87.45
2018-08-18T04:41:36.977Z,87.20
2018-08-18T04:44:04.265Z,86.30
2018-08-18T04:46:31.516Z,86.03
2018-08-18T04:48:58.652Z,84.84
2018-08-18T04:51:25.775Z,85.72
2018-08-18T04:53:53.009Z,84.11
2018-08-18T04:56:20.110Z,84.69
2018-08-18T04:58:47.284Z,84.02
2018-08-18T05:01:14.452Z,85.69
2018-08-18T05:03:56.784Z,83.59
2018-08-18T05:06:26.244Z,85.71
2018-08-18T05:08:53.988Z,84.80
2018-08-18T05:11:21.112Z,83.68
2018-08-18T05:13:48.272Z,83.33
2018-08-18T05:16:16.844Z,81.33
2018-08-18T05:18:44.147Z,80.71
2018-08-18T05:21:11.530Z,82.23
2018-08-18T05:23:38.641Z,81.39
2018-08-18T05:26:06.348Z,81.10
2018-08-18T05:28:34.128Z,80.96
2018-08-18T05:31:01.333Z,80.31
2018-08-18T05:33:28.811Z,80.56
2018-08-18T05:38:40.469Z,78.26
2018-08-18T05:41:07.798Z,80.20
2018-08-18T05:43:35.592Z,78.16
2018-08-18T05:46:03.771Z,77.04
2018-08-18T05:48:31.614Z,77.71
2018-08-18T05:51:00.446Z,78.11
2018-08-18T05:53:29.660Z,76.75
2018-08-18T05:55:57.770Z,77.26
2018-08-18T05:58:25.078Z,76.70
2018-08-18T06:00:57.113Z,76.15
2018-08-18T06:03:24.360Z,76.09
2018-08-18T06:05:56.966Z,73.51
2018-08-18T06:08:24.116Z,75.57
2018-08-18T06:10:51.324Z,75.40
2018-08-18T06:13:19.569Z,74.24
2018-08-18T06:16:18.784Z,75.17
2018-08-18T06:18:45.948Z,73.75
2018-08-18T06:21:19.059Z,73.07
2018-08-18T06:23:46.259Z,71.55
2018-08-18T06:26:13.414Z,71.12
2018-08-18T06:28:42.008Z,70.87
2018-08-18T06:31:09.200Z,70.35
2018-08-18T06:33:42.549Z,68.14
2018-08-18T06:36:09.755Z,69.46
2018-08-18T06:38:37.034Z,68.91
2018-08-18T06:41:04.239Z,68.75
2018-08-18T06:43:33.307Z,68.76
2018-08-18T06:46:00.955Z,68.25
2018-08-18T06:48:30.800Z,68.29
2018-08-18T06:50:58.058Z,67.22
2018-08-18T06:53:25.278Z,66.08
2018-08-18T06:55:52.416Z,65.81
2018-08-18T09:55:07.192Z,41.26
2018-08-18T09:57:34.337Z,40.45
2018-08-18T10:00:01.468Z,41.67
2018-08-18T10:02:29.395Z,42.88
2018-08-18T10:04:56.558Z,42.02
2018-08-18T10:07:23.804Z,41.76
2018-08-18T10:09:51.052Z,45.63
2018-08-18T10:12:18.223Z,41.76
2018-08-18T10:14:45.413Z,41.92
2018-08-18T10:17:12.615Z,44.80
2018-08-18T10:19:39.808Z,49.58
2018-08-18T10:22:07.016Z,42.58
2018-08-18T10:24:34.210Z,40.11
2018-08-18T10:27:04.918Z,41.62
2018-08-18T10:29:32.188Z,42.45
2018-08-18T10:31:59.743Z,39.62
2018-08-18T10:34:29.299Z,38.47
2018-08-18T10:36:58.944Z,38.44
2018-08-18T10:39:26.235Z,40.05
2018-08-18T10:42:03.576Z,42.62
2018-08-18T10:44:31.871Z,42.57
2018-08-18T10:47:06.603Z,43.38
2018-08-18T10:49:45.353Z,42.52
2018-08-18T10:52:25.814Z,41.45
2018-08-18T10:54:53.167Z,40.44
2018-08-18T10:57:32.385Z,42.39
2018-08-18T11:00:02.997Z,40.40
2018-08-18T11:02:33.374Z,40.76
2018-08-18T11:05:00.615Z,36.56
2018-08-18T11:07:28.842Z,37.18
2018-08-18T11:09:57.126Z,37.08
2018-08-18T11:12:24.439Z,39.07
2018-08-18T11:14:57.504Z,38.13
2018-08-18T11:17:25.060Z,37.69
2018-08-18T11:19:52.230Z,37.22
2018-08-18T11:22:44.074Z,35.43
2018-08-18T11:25:11.233Z,35.81
2018-08-18T11:27:38.376Z,34.83
2018-08-18T11:30:09.165Z,35.80
2018-08-18T11:32:36.296Z,37.93
2018-08-18T11:35:06.886Z,35.95
2018-08-18T11:37:39.057Z,38.50
2018-08-18T11:40:06.203Z,38.43
2018-08-18T11:42:33.460Z,40.14
2018-08-18T11:45:00.825Z,38.78
2018-08-18T11:47:27.966Z,40.52
2018-08-18T11:49:55.304Z,38.28
2018-08-18T11:52:22.528Z,35.97
2018-08-18T11:54:49.767Z,34.23
2018-08-18T11:57:17.016Z,36.01
2018-08-18T11:59:44.232Z,34.84
2018-08-18T12:02:11.478Z,35.23
2018-08-18T12:04:38.683Z,34.17
2018-08-18T12:07:05.860Z,34.91
2018-08-18T12:09:33.001Z,35.76
2018-08-18T12:12:00.184Z,35.73
2018-08-18T12:14:27.842Z,34.59
2018-08-18T12:16:55.071Z,36.57
2018-08-18T12:19:22.359Z,38.51
2018-08-18T12:21:49.523Z,40.45
2018-08-18T12:24:19.013Z,37.89
2018-08-18T12:26:57.634Z,38.95
2018-08-18T12:29:24.894Z,38.51
2018-08-18T12:31:52.009Z,38.32
2018-08-18T12:34:19.209Z,39.33
2018-08-18T12:36:46.350Z,38.58
2018-08-18T12:39:13.451Z,38.46
2018-08-18T12:41:40.681Z,39.45
2018-08-18T12:44:07.797Z,37.99
2018-08-18T12:46:40.626Z,39.88
2018-08-18T12:49:07.808Z,38.92
2018-08-18T12:51:34.936Z,39.74
2018-08-18T12:54:02.378Z,42.07
2018-08-18T12:56:29.515Z,38.11
2018-08-18T12:58:56.711Z,40.08
2018-08-18T13:01:36.153Z,41.01
2018-08-18T13:04:04.608Z,40.24
2018-08-18T13:06:37.569Z,38.27
2018-08-18T13:09:06.843Z,39.20
2018-08-18T13:11:34.009Z,41.73
2018-08-18T13:14:04.135Z,41.00
2018-08-18T13:16:31.365Z,37.99
2018-08-18T13:18:58.541Z,38.94
2018-08-18T13:21:25.697Z,40.38
2018-08-18T13:23:52.898Z,42.53
2018-08-18T13:26:20.012Z,41.99
2018-08-18T13:28:52.049Z,41.92
2018-08-18T13:31:19.220Z,41.48
2018-08-18T13:33:46.360Z,41.12
2018-08-18T13:36:13.529Z,38.68
2018-08-18T13:38:40.656Z,39.03
2018-08-18T13:41:07.995Z,40.83
2018-08-18T13:43:42.266Z,38.63
2018-08-18T13:46:15.901Z,36.94
2018-08-18T13:48:51.681Z,37.81
2018-08-18T13:51:20.173Z,37.71
2018-08-18T13:53:50.645Z,37.73
2018-08-18T13:56:18.034Z,39.42
2018-08-18T13:58:47.784Z,37.97
2018-08-18T14:01:28.065Z,40.27
2018-08-18T14:03:55.175Z,36.60
2018-08-18T14:06:22.289Z,38.11
2018-08-18T14:09:09.337Z,37.47
2018-08-18T14:11:36.613Z,36.55
2018-08-18T14:14:03.844Z,37.14
2018-08-18T14:16:31.603Z,40.15
2018-08-18T14:18:58.924Z,39.94
2018-08-18T14:21:26.061Z,38.91
2018-08-18T14:23:53.277Z,39.47
2018-08-18T14:26:20.431Z,37.47
2018-08-18T14:28:47.589Z,41.03
2018-08-18T14:31:14.751Z,39.68
2018-08-18T14:33:41.868Z,40.60
2018-08-18T14:36:12.848Z,37.21
2018-08-18T14:38:41.484Z,41.40
2018-08-18T14:41:11.065Z,38.21
2018-08-18T14:43:39.270Z,37.32
2018-08-18T14:46:10.973Z,40.65
2018-08-18T14:48:38.172Z,40.71
2018-08-18T14:51:05.677Z,37.69
2018-08-18T14:53:32.927Z,38.16
2018-08-18T14:56:00.034Z,37.88
2018-08-18T14:58:32.298Z,37.13
2018-08-18T15:01:05.075Z,36.93
2018-08-18T15:03:32.257Z,36.33
2018-08-18T15:05:59.437Z,36.37
2018-08-18T15:08:26.634Z,36.34
2018-08-18T15:10:53.916Z,37.60
2018-08-18T15:13:21.050Z,35.82
2018-08-18T15:15:48.304Z,36.63
2018-08-18T15:18:17.304Z,37.89
2018-08-18T15:20:45.223Z,37.67
2018-08-18T15:23:13.123Z,38.49
2018-08-18T15:25:41.351Z,38.37
2018-08-18T15:28:09.582Z,39.72
2018-08-18T15:30:38.008Z,40.79
2018-08-18T15:33:06.115Z,38.20
2018-08-18T15:35:34.622Z,39.21
2018-08-18T15:38:01.852Z,40.44
2018-08-18T15:40:31.360Z,40.23
2018-08-18T15:42:59.341Z,41.29
2018-08-18T15:45:27.084Z,38.42
2018-08-18T15:47:54.368Z,38.06
2018-08-18T15:50:21.906Z,42.46
2018-08-18T15:52:49.120Z,39.83
2018-08-18T15:55:16.893Z,37.85
2018-08-18T15:57:44.157Z,38.47
2018-08-18T16:00:28.351Z,39.24
2018-08-18T16:02:56.561Z,39.04
2018-08-18T16:05:23.701Z,38.36
2018-08-18T16:07:51.448Z,38.70
2018-08-18T16:10:18.615Z,39.48
2018-08-18T16:12:46.296Z,39.99
2018-08-18T16:15:13.588Z,41.63
2018-08-18T16:17:40.804Z,40.62
2018-08-18T16:20:16.612Z,39.85
2018-08-18T16:22:43.749Z,42.09
2018-08-18T16:25:22.560Z,41.47
2018-08-18T16:27:49.683Z,39.92
2018-08-18T16:30:16.944Z,41.63
2018-08-18T16:32:45.207Z,40.22
2018-08-18T16:35:12.320Z,43.41
2018-08-18T16:37:42.173Z,41.05
2018-08-18T16:40:09.351Z,40.64
2018-08-18T16:42:36.704Z,41.13
2018-08-18T16:45:04.772Z,40.96
2018-08-18T16:47:35.992Z,40.62
2018-08-18T16:50:03.179Z,42.02
2018-08-18T16:52:30.292Z,41.53
2018-08-18T16:54:57.556Z,43.07
2018-08-18T16:57:24.835Z,41.90
2018-08-18T16:59:51.987Z,42.31
2018-08-18T17:02:35.272Z,44.33
2018-08-18T17:05:02.682Z,46.51
2018-08-18T17:07:29.819Z,45.49
2018-08-18T17:09:57.052Z,44.12
2018-08-18T17:12:27.448Z,45.45
2018-08-18T17:14:54.588Z,47.18
2018-08-18T17:17:22.277Z,46.48
2018-08-18T17:19:49.556Z,47.07
2018-08-18T17:22:16.714Z,46.63
2018-08-18T17:24:43.879Z,45.21
2018-08-18T17:27:11.067Z,48.71
2018-08-18T17:29:39.563Z,50.43
2018-08-18T17:32:07.371Z,47.36
2018-08-18T17:34:34.496Z,50.29
2018-08-18T17:37:01.631Z,52.15
2018-08-18T17:39:28.818Z,53.77
2018-08-18T17:41:56.379Z,54.97
2018-08-18T17:44:23.565Z,56.24
2018-08-18T17:46:52.400Z,57.23
2018-08-18T17:49:20.775Z,58.16
2018-08-18T17:52:06.699Z,58.40
2018-08-18T17:54:34.535Z,59.24
2018-08-18T17:57:01.914Z,60.59
2018-08-18T17:59:29.211Z,60.12
2018-08-18T18:02:08.665Z,61.08
2018-08-18T18:04:35.900Z,62.08
2018-08-18T18:07:03.264Z,62.29
2018-08-18T18:09:32.057Z,63.29
2018-08-18T18:12:10.872Z,63.90
2018-08-18T18:14:38.108Z,64.98
2018-08-18T18:17:06.328Z,65.02
2018-08-18T18:19:33.482Z,66.10
2018-08-18T18:22:00.630Z,66.15
2018-08-18T18:24:38.104Z,65.81
2018-08-18T18:27:05.360Z,65.83
2018-08-18T18:29:32.686Z,66.34
2018-08-18T18:31:59.845Z,67.09
2018-08-18T18:34:26.975Z,67.04
2018-08-18T18:36:54.133Z,67.52
2018-08-18T18:39:21.442Z,67.73
2018-08-18T18:41:48.582Z,67.96
2018-08-18T18:44:15.712Z,69.08
2018-08-18T18:46:42.888Z,68.79
2018-08-18T18:49:23.089Z,67.81
2018-08-18T18:51:50.447Z,69.30
2018-08-18T18:54:17.650Z,69.11
2018-08-18T18:56:44.740Z,69.10
2018-08-18T18:59:11.972Z,69.55
2018-08-18T19:01:39.158Z,70.00
2018-08-18T19:04:08.460Z,70.03
2018-08-18T19:06:59.683Z,70.69
2018-08-18T19:09:26.803Z,71.18
2018-08-18T19:11:54.015Z,72.13
2018-08-18T19:14:21.896Z,71.76
2018-08-18T19:16:49.520Z,71.97
2018-08-18T19:19:16.932Z,72.35
2018-08-18T19:21:44.096Z,71.88
2018-08-18T19:24:19.773Z,72.03
2018-08-18T19:26:55.744Z,72.55
2018-08-18T19:29:26.280Z,73.14
2018-08-18T19:31:55.581Z,73.42
2018-08-18T19:34:22.905Z,73.29
2018-08-18T19:37:04.956Z,73.24
2018-08-18T19:39:33.215Z,72.48
2018-08-18T19:42:07.102Z,72.99
2018-08-18T19:44:37.710Z,73.59
2018-08-18T19:47:05.258Z,73.63
2018-08-18T19:49:39.218Z,73.96
2018-08-18T19:52:11.239Z,74.23
2018-08-18T19:54:40.188Z,74.08
2018-08-18T19:57:07.387Z,74.26
2018-08-18T19:59:34.493Z,74.72
2018-08-18T20:02:01.768Z,75.17
2018-08-18T20:04:32.115Z,75.90
2018-08-18T20:06:59.242Z,75.84
2018-08-18T20:09:26.483Z,76.30
2018-08-18T20:11:53.678Z,76.25
2018-08-18T20:14:20.832Z,77.27
2018-08-18T20:16:48.125Z,77.34
2018-08-18T20:19:16.432Z,77.94
2018-08-18T20:21:43.727Z,78.27
2018-08-18T20:24:10.904Z,78.25
2018-08-18T20:26:38.147Z,78.76
2018-08-18T20:29:05.442Z,78.79
2018-08-18T20:31:32.656Z,78.40
2018-08-18T20:34:00.685Z,79.11
2018-08-18T20:36:27.836Z,78.63
2018-08-18T20:38:55.042Z,79.16
2018-08-18T20:41:23.293Z,78.92
2018-08-18T20:43:50.433Z,78.98
2018-08-18T20:46:17.717Z,79.63
2018-08-18T20:48:44.923Z,79.86
2018-08-18T20:51:12.712Z,80.55
2018-08-18T20:53:39.951Z,80.42
2018-08-18T20:56:07.111Z,80.85
2018-08-18T20:58:34.861Z,80.79
2018-08-18T21:01:02.324Z,80.66
2018-08-18T21:03:44.683Z,81.36
2018-08-18T21:06:12.532Z,81.78
2018-08-18T21:08:39.767Z,81.67
2018-08-18T21:11:07.027Z,82.42
2018-08-18T21:13:34.358Z,81.97
2018-08-18T21:16:01.440Z,82.76
2018-08-18T21:18:29.143Z,82.55
2018-08-18T21:20:56.385Z,82.95
2018-08-18T21:23:24.011Z,83.01
2018-08-18T21:25:52.372Z,82.25
2018-08-18T21:28:21.463Z,82.53
2018-08-18T21:30:48.818Z,83.04
2018-08-18T21:33:16.029Z,83.03
2018-08-18T21:35:43.256Z,82.75
2018-08-18T21:38:10.745Z,82.98
2018-08-18T21:40:37.855Z,82.36
2018-08-18T21:43:05.929Z,83.17
2018-08-18T21:45:41.345Z,83.47
2018-08-18T21:48:08.598Z,83.41
2018-08-18T21:50:35.730Z,84.04
2018-08-18T21:53:02.852Z,84.01
2018-08-18T21:55:36.211Z,83.67
2018-08-18T21:58:03.383Z,83.68
2018-08-18T22:00:36.381Z,83.38
2018-08-18T22:03:03.636Z,83.70
2018-08-18T22:05:31.231Z,82.71
2018-08-18T22:07:58.863Z,83.68
2018-08-18T22:10:25.986Z,83.91
2018-08-18T22:12:53.134Z,84.76
2018-08-18T22:15:21.944Z,84.67
2018-08-18T22:17:50.514Z,85.43
2018-08-18T22:20:19.133Z,85.02
2018-08-18T22:22:46.417Z,85.11
2018-08-18T22:25:14.038Z,85.18
2018-08-18T22:27:41.136Z,85.28
2018-08-18T22:30:10.667Z,86.45
2018-08-18T22:32:38.168Z,86.10
2018-08-18T22:35:05.331Z,86.58
2018-08-18T22:37:32.520Z,86.32
2018-08-18T22:39:59.805Z,86.23
2018-08-18T22:42:26.931Z,85.91
2018-08-18T22:44:54.263Z,86.01
2018-08-18T22:47:21.441Z,86.32
2018-08-18T22:49:50.463Z,87.11
2018-08-18T22:52:17.663Z,87.18
2018-08-18T22:54:44.796Z,87.09
2018-08-18T22:57:12.816Z,87.16
2018-08-18T22:59:40.312Z,87.08
2018-08-18T23:02:07.458Z,87.15
2018-08-18T23:04:35.796Z,87.79
2018-08-18T23:07:03.981Z,87.85
2018-08-18T23:09:31.659Z,88.37
2018-08-18T23:12:00.259Z,88.43
2018-08-18T23:14:38.545Z,88.31
2018-08-18T23:17:07.076Z,87.91
2018-08-18T23:19:34.359Z,87.70
2018-08-18T23:22:01.838Z,87.73
2018-08-18T23:24:32.594Z,87.56
2018-08-18T23:27:00.152Z,87.68
2018-08-18T23:29:27.477Z,87.11
2018-08-18T23:31:54.751Z,86.70
2018-08-18T23:34:21.949Z,86.81
2018-08-18T23:36:49.107Z,87.21
2018-08-18T23:39:16.202Z,86.86
2018-08-18T23:41:43.334Z,88.26
2018-08-18T23:44:10.672Z,87.95
2018-08-18T23:46:37.789Z,88.45
2018-08-18T23:49:05.581Z,88.33
2018-08-18T23:51:40.210Z,87.38
2018-08-18T23:54:14.724Z,87.94
2018-08-18T23:56:42.852Z,87.56
2018-08-18T23:59:09.989Z,87.49
